createdAt,value
2023-04-01T00:00:23.512Z,86.5
2023-04-01T00:01:28.722Z,86.5
2023-04-01T00:02:34.028Z,86.5
2023-04-01T00:03:39.324Z,86.5
2023-04-01T00:04:45.424Z,86.5
2023-04-01T00:05:51.917Z,86.5
2023-04-01T00:06:57.974Z,86.5
2023-04-01T00:08:04.243Z,86.5
2023-04-01T00:09:10.689Z,86.5
2023-04-01T00:10:16.992Z,86.5
2023-04-01T00:11:23.222Z,86.5
2023-04-01T00:12:29.515Z,86.5
2023-04-01T00:13:35.707Z,86.5
2023-04-01T00:14:41.874Z,86.5
2023-04-01T00:15:48.148Z,87
2023-04-01T00:16:54.540Z,87
2023-04-01T00:18:00.831Z,87
2023-04-01T00:19:05.992Z,87
2023-04-01T00:20:12.344Z,87
2023-04-01T00:21:18.721Z,87
2023-04-01T00:22:24.919Z,86.5
2023-04-01T00:23:31.202Z,87
2023-04-01T00:24:37.530Z,87
2023-04-01T00:25:42.708Z,87
2023-04-01T00:26:47.927Z,87
2023-04-01T00:27:53.223Z,86.5
2023-04-01T00:28:58.502Z,86.5
2023-04-01T00:30:04.904Z,86.5
2023-04-01T00:31:11.305Z,87
2023-04-01T00:32:17.455Z,87
2023-04-01T00:33:23.606Z,87
2023-04-01T00:34:29.870Z,87
2023-04-01T00:35:36.294Z,87.5
2023-04-01T00:36:42.652Z,87.5
2023-04-01T00:37:48.690Z,87.5
2023-04-01T00:38:55.107Z,88
2023-04-01T00:40:01.259Z,88
2023-04-01T00:41:07.688Z,88.5
2023-04-01T00:42:13.891Z,88.5
2023-04-01T00:43:19.142Z,88.5
2023-04-01T00:44:25.507Z,88.5
2023-04-01T00:45:31.756Z,88
2023-04-01T00:46:38.104Z,88
2023-04-01T00:47:44.163Z,88.5
2023-04-01T00:48:50.593Z,88.5
2023-04-01T00:49:56.743Z,88.5
2023-04-01T00:51:02.970Z,88.5
2023-04-01T00:52:09.344Z,89
2023-04-01T00:53:15.608Z,88.5
2023-04-01T00:54:21.958Z,89
2023-04-01T00:55:28.134Z,89
2023-04-01T00:56:34.475Z,89
2023-04-01T00:57:39.744Z,89
2023-04-01T00:58:45.924Z,89
2023-04-01T00:59:52.334Z,89.5
2023-04-01T01:00:58.634Z,89.5
2023-04-01T01:02:04.841Z,89.5
2023-04-01T01:03:11.105Z,89.5
2023-04-01T01:04:17.307Z,89.5
2023-04-01T01:05:23.564Z,89.5
2023-04-01T01:06:29.952Z,89.5
2023-04-01T01:07:36.062Z,90
2023-04-01T01:08:42.339Z,90
2023-04-01T01:09:48.609Z,89.5
2023-04-01T01:10:55.024Z,89.5
2023-04-01T01:12:00.219Z,89.5
2023-04-01T01:13:05.624Z,89.5
2023-04-01T01:14:11.756Z,89.5
2023-04-01T01:15:18.068Z,89.5
2023-04-01T01:16:23.460Z,89
2023-04-01T01:17:28.746Z,89.5
2023-04-01T01:18:34.862Z,89
2023-04-01T01:19:41.265Z,89
2023-04-01T01:20:47.530Z,89
2023-04-01T01:21:53.678Z,89
2023-04-01T01:23:00.102Z,89
2023-04-01T01:24:06.323Z,89
2023-04-01T01:25:12.694Z,88.5
2023-04-01T01:26:18.871Z,89
2023-04-01T01:27:25.292Z,88.5
2023-04-01T01:28:31.471Z,89
2023-04-01T01:29:37.782Z,88.5
2023-04-01T01:30:43.888Z,88.5
2023-04-01T01:31:49.196Z,89
2023-04-01T01:32:55.432Z,89
2023-04-01T01:34:01.705Z,89
2023-04-01T01:35:07.960Z,89
2023-04-01T01:36:14.294Z,88.5
2023-04-01T01:37:20.615Z,89
2023-04-01T01:38:26.924Z,89
2023-04-01T01:39:33.209Z,89
2023-04-01T01:40:39.309Z,88.5
2023-04-01T01:41:45.751Z,89
2023-04-01T01:42:52.034Z,89
2023-04-01T01:43:58.235Z,89
2023-04-01T01:45:04.498Z,89
2023-04-01T01:46:09.728Z,89.5
2023-04-01T01:47:16.121Z,89.5
2023-04-01T01:48:22.419Z,89
2023-04-01T01:49:27.535Z,89.5
2023-04-01T01:50:33.973Z,89
2023-04-01T01:51:40.207Z,89.5
2023-04-01T01:52:46.526Z,89.5
2023-04-01T01:53:52.824Z,89.5
2023-04-01T01:54:59.099Z,89.5
2023-04-01T01:56:05.239Z,89.5
2023-04-01T01:57:11.432Z,89.5
2023-04-01T01:58:17.878Z,89.5
2023-04-01T01:59:24.051Z,89.5
2023-04-01T02:00:30.460Z,89.5
2023-04-01T02:01:36.661Z,89.5
2023-04-01T02:02:42.987Z,89.5
2023-04-01T02:03:48.227Z,89.5
2023-04-01T02:04:54.461Z,89.5
2023-04-01T02:06:00.751Z,89.5
2023-04-01T02:07:07.058Z,89
2023-04-01T02:08:13.269Z,89
2023-04-01T02:09:19.636Z,89
2023-04-01T02:10:25.879Z,89
2023-04-01T02:11:32.156Z,89
2023-04-01T02:12:38.467Z,89
2023-04-01T02:13:44.529Z,89
2023-04-01T02:14:50.798Z,89
2023-04-01T02:15:57.248Z,89
2023-04-01T02:17:03.539Z,89.5
2023-04-01T02:18:08.792Z,89.5
2023-04-01T02:19:15.071Z,89.5
2023-04-01T02:20:21.340Z,89.5
2023-04-01T02:21:27.530Z,89.5
2023-04-01T02:22:33.720Z,89.5
2023-04-01T02:23:40.192Z,89.5
2023-04-01T02:24:46.292Z,89.5
2023-04-01T02:25:51.705Z,89.5
2023-04-01T02:26:57.052Z,89.5
2023-04-01T02:28:03.199Z,89.5
2023-04-01T02:29:09.581Z,89.5
2023-04-01T02:30:15.681Z,89.5
2023-04-01T02:31:21.192Z,89
2023-04-01T02:32:26.410Z,89
2023-04-01T02:33:32.525Z,89
2023-04-01T02:34:38.811Z,89
2023-04-01T02:35:45.194Z,89.5
2023-04-01T02:36:51.523Z,89.5
2023-04-01T02:37:57.772Z,89
2023-04-01T02:39:04.021Z,89
2023-04-01T02:40:10.290Z,89
2023-04-01T02:41:16.575Z,89
2023-04-01T02:42:22.845Z,89
2023-04-01T02:43:29.178Z,89
2023-04-01T02:44:35.241Z,89
2023-04-01T02:45:41.507Z,89
2023-04-01T02:46:46.883Z,89
2023-04-01T02:47:53.078Z,89
2023-04-01T02:48:59.529Z,89
2023-04-01T02:50:05.618Z,89
2023-04-01T02:51:11.912Z,89.5
2023-04-01T02:52:18.229Z,89
2023-04-01T02:53:24.669Z,89
2023-04-01T02:54:30.854Z,89
2023-04-01T02:55:37.130Z,89
2023-04-01T02:56:43.251Z,89
2023-04-01T02:57:49.674Z,88.5
2023-04-01T02:58:55.874Z,88.5
2023-04-01T03:00:02.071Z,88.5
2023-04-01T03:01:07.450Z,89
2023-04-01T03:02:13.762Z,88.5
2023-04-01T03:03:20.017Z,88.5
2023-04-01T03:04:26.401Z,88.5
2023-04-01T03:05:32.515Z,88.5
2023-04-01T03:06:38.843Z,88.5
2023-04-01T03:07:45.159Z,88.5
2023-04-01T03:08:51.503Z,88.5
2023-04-01T03:09:56.688Z,88.5
2023-04-01T03:11:01.846Z,88.5
2023-04-01T03:12:08.226Z,88
2023-04-01T03:13:14.488Z,88.5
2023-04-01T03:14:19.799Z,87.5
2023-04-01T03:15:24.988Z,88
2023-04-01T03:16:31.402Z,88
2023-04-01T03:17:37.674Z,88
2023-04-01T03:18:43.965Z,88
2023-04-01T03:19:50.214Z,88
2023-04-01T03:20:56.426Z,88.5
2023-04-01T03:22:02.668Z,88.5
2023-04-01T03:23:09.026Z,88.5
2023-04-01T03:24:15.311Z,88.5
2023-04-01T03:25:21.546Z,88
2023-04-01T03:26:27.798Z,87.5
2023-04-01T03:27:34.040Z,87.5
2023-04-01T03:28:40.394Z,87.5
2023-04-01T03:29:45.655Z,88
2023-04-01T03:30:51.940Z,88
2023-04-01T03:31:58.212Z,87.5
2023-04-01T03:33:04.548Z,88
2023-04-01T03:34:10.654Z,88.5
2023-04-01T03:35:17.049Z,87.5
2023-04-01T03:36:23.350Z,88
2023-04-01T03:37:28.652Z,87.5
2023-04-01T03:38:33.898Z,88.5
2023-04-01T03:39:39.072Z,88.5
2023-04-01T03:40:45.477Z,88
2023-04-01T03:41:50.598Z,88
2023-04-01T03:42:56.910Z,88.5
2023-04-01T03:44:03.146Z,89
2023-04-01T03:45:09.537Z,89
2023-04-01T03:46:15.789Z,89.5
2023-04-01T03:47:21.958Z,90
2023-04-01T03:48:28.423Z,90.5
2023-04-01T03:49:34.667Z,91.5
2023-04-01T03:50:40.776Z,90.5
2023-04-01T03:51:47.174Z,91
2023-04-01T03:52:53.518Z,91
2023-04-01T03:53:59.788Z,91.5
2023-04-01T03:55:06.020Z,91.5
2023-04-01T03:56:12.143Z,92
2023-04-01T03:57:17.424Z,92
2023-04-01T03:58:23.850Z,92.5
2023-04-01T03:59:30.135Z,92
2023-04-01T04:00:36.405Z,92
2023-04-01T04:01:42.680Z,91.5
2023-04-01T04:02:48.969Z,92
2023-04-01T04:03:55.202Z,92
2023-04-01T04:05:01.464Z,91.5
2023-04-01T04:07:14.050Z,91.5
2023-04-01T04:08:20.273Z,92
2023-04-01T04:09:26.569Z,92
2023-04-01T04:10:32.875Z,92
2023-04-01T04:11:38.147Z,92.5
2023-04-01T04:12:44.361Z,93
2023-04-01T04:13:50.741Z,92.5
2023-04-01T04:14:57.044Z,93
2023-04-01T04:16:03.080Z,92.5
2023-04-01T04:17:09.534Z,93
2023-04-01T04:18:15.758Z,93
2023-04-01T04:19:22.015Z,93.5
2023-04-01T04:20:28.151Z,94
2023-04-01T04:21:34.590Z,94
2023-04-01T04:23:46.960Z,94
2023-04-01T04:24:53.275Z,94
2023-04-01T04:25:59.508Z,94.5
2023-04-01T04:27:04.922Z,94.5
2023-04-01T04:28:11.073Z,94.5
2023-04-01T04:29:17.389Z,94
2023-04-01T04:30:23.686Z,94
2023-04-01T04:31:29.967Z,94
2023-04-01T04:32:36.289Z,94
2023-04-01T04:33:42.561Z,94.5
2023-04-01T04:34:48.882Z,94.5
2023-04-01T04:35:55.088Z,94.5
2023-04-01T04:37:01.422Z,94
2023-04-01T04:38:07.555Z,94
2023-04-01T04:39:13.795Z,93.5
2023-04-01T04:40:20.211Z,93.5
2023-04-01T04:41:25.359Z,93.5
2023-04-01T04:42:31.777Z,93
2023-04-01T04:43:38.009Z,93
2023-04-01T04:44:44.217Z,93
2023-04-01T04:45:50.593Z,92.5
2023-04-01T04:46:56.723Z,92.5
2023-04-01T04:48:02.975Z,92.5
2023-04-01T04:49:09.312Z,92.5
2023-04-01T04:50:15.630Z,92.5
2023-04-01T04:51:21.791Z,92.5
2023-04-01T04:52:28.191Z,92
2023-04-01T04:53:34.348Z,92
2023-04-01T04:54:40.743Z,92
2023-04-01T04:56:53.240Z,91.5
2023-04-01T04:57:58.570Z,91.5
2023-04-01T04:59:04.746Z,91.5
2023-04-01T05:00:11.139Z,91.5
2023-04-01T05:01:17.488Z,91.5
2023-04-01T05:02:23.552Z,91.5
2023-04-01T05:03:29.818Z,91
2023-04-01T05:04:36.178Z,91
2023-04-01T05:05:42.418Z,91
2023-04-01T05:06:48.614Z,91.5
2023-04-01T05:07:55.033Z,91
2023-04-01T05:09:01.162Z,91
2023-04-01T05:10:07.430Z,91
2023-04-01T05:11:13.693Z,91.5
2023-04-01T05:12:19.197Z,91.5
2023-04-01T05:13:25.333Z,91.5
2023-04-01T05:14:31.584Z,91
2023-04-01T05:15:37.868Z,91
2023-04-01T05:16:44.079Z,91
2023-04-01T05:17:50.422Z,91
2023-04-01T05:18:56.618Z,91
2023-04-01T05:20:03.084Z,91
2023-04-01T05:21:08.355Z,91
2023-04-01T05:22:13.582Z,91
2023-04-01T05:23:18.794Z,91
2023-04-01T05:24:24.082Z,91
2023-04-01T05:25:30.359Z,91
2023-04-01T05:26:36.639Z,91.5
2023-04-01T05:27:42.931Z,91
2023-04-01T05:28:49.185Z,91
2023-04-01T05:29:55.603Z,91
2023-04-01T05:31:00.831Z,91
2023-04-01T05:32:07.198Z,91
2023-04-01T05:33:13.289Z,91
2023-04-01T05:34:19.626Z,91
2023-04-01T05:35:25.803Z,91
2023-04-01T05:36:32.115Z,91
2023-04-01T05:37:38.497Z,91
2023-04-01T05:38:44.696Z,91
2023-04-01T05:39:51.118Z,91
2023-04-01T05:40:57.168Z,91
2023-04-01T05:42:03.713Z,91
2023-04-01T05:43:09.701Z,91
2023-04-01T05:44:16.004Z,91
2023-04-01T05:45:21.281Z,91
2023-04-01T05:46:26.616Z,91.5
2023-04-01T05:47:31.917Z,91
2023-04-01T05:48:37.161Z,91
2023-04-01T05:49:42.549Z,91.5
2023-04-01T05:50:48.825Z,91.5
2023-04-01T05:51:55.017Z,91.5
2023-04-01T05:53:01.430Z,91.5
2023-04-01T05:54:07.535Z,91.5
2023-04-01T05:55:13.804Z,91.5
2023-04-01T05:56:20.169Z,91.5
2023-04-01T05:57:26.355Z,91.5
2023-04-01T05:58:32.650Z,91.5
2023-04-01T05:59:38.886Z,91.5
2023-04-01T06:00:45.174Z,91.5
2023-04-01T06:01:51.438Z,91.5
2023-04-01T06:02:57.744Z,91.5
2023-04-01T06:04:02.999Z,91.5
2023-04-01T06:05:09.262Z,91.5
2023-04-01T06:06:15.573Z,91.5
2023-04-01T06:07:21.825Z,91.5
2023-04-01T06:08:28.082Z,91.5
2023-04-01T06:09:34.338Z,91.5
2023-04-01T06:10:40.732Z,91.5
2023-04-01T06:11:46.892Z,91.5
2023-04-01T06:12:52.329Z,91.5
2023-04-01T06:13:58.473Z,91
2023-04-01T06:15:03.839Z,91.5
2023-04-01T06:16:09.124Z,91
2023-04-01T06:17:15.318Z,91
2023-04-01T06:18:21.796Z,91
2023-04-01T06:19:27.874Z,91
2023-04-01T06:20:34.163Z,91.5
2023-04-01T06:21:40.409Z,91
2023-04-01T06:22:46.770Z,90.5
2023-04-01T06:23:52.992Z,91
2023-04-01T06:24:59.346Z,90.5
2023-04-01T06:26:05.594Z,90.5
2023-04-01T06:27:11.849Z,90
2023-04-01T06:28:18.053Z,90
2023-04-01T06:29:24.336Z,90
2023-04-01T06:30:29.728Z,89.5
2023-04-01T06:31:36.030Z,89
2023-04-01T06:32:42.265Z,89.5
2023-04-01T06:33:48.433Z,88.5
2023-04-01T06:34:54.861Z,88.5
2023-04-01T06:36:01.068Z,88
2023-04-01T06:37:07.436Z,88
2023-04-01T06:38:13.634Z,88
2023-04-01T06:39:19.887Z,88.5
2023-04-01T06:40:26.232Z,88
2023-04-01T06:41:32.513Z,86.5
2023-04-01T06:42:38.739Z,87
2023-04-01T06:43:45.026Z,86.5
2023-04-01T06:44:50.341Z,86.5
2023-04-01T06:45:56.606Z,85.5
2023-04-01T06:47:02.866Z,85.5
2023-04-01T06:48:09.209Z,85.5
2023-04-01T06:49:15.414Z,86
2023-04-01T06:50:21.525Z,84.5
2023-04-01T06:52:34.075Z,83.5
2023-04-01T06:53:40.563Z,83.5
2023-04-01T06:54:46.719Z,84.5
2023-04-01T06:55:52.922Z,84
2023-04-01T06:56:59.384Z,83.5
2023-04-01T06:58:04.623Z,83
2023-04-01T06:59:10.716Z,83
2023-04-01T07:00:16.067Z,83
2023-04-01T07:01:22.514Z,82.5
2023-04-01T07:02:28.564Z,83
2023-04-01T07:03:34.035Z,82
2023-04-01T07:04:39.280Z,82.5
2023-04-01T07:05:45.586Z,83
2023-04-01T07:06:51.872Z,84
2023-04-01T07:07:58.123Z,81.5
2023-04-01T07:09:04.337Z,81
2023-04-01T07:10:10.572Z,81
2023-04-01T07:11:16.945Z,80.5
2023-04-01T07:12:23.199Z,82
2023-04-01T07:13:29.495Z,81
2023-04-01T07:14:35.700Z,80.5
2023-04-01T07:15:41.970Z,82
2023-04-01T07:16:48.138Z,81
2023-04-01T07:17:54.459Z,81
2023-04-01T07:18:59.840Z,82
2023-04-01T07:20:06.024Z,81
2023-04-01T07:21:12.412Z,82.5
2023-04-01T07:22:18.667Z,81.5
2023-04-01T07:23:24.912Z,81.5
2023-04-01T07:24:31.274Z,81.5
2023-04-01T07:25:37.444Z,80.5
2023-04-01T07:26:43.604Z,81.5
2023-04-01T07:27:50.038Z,82
2023-04-01T07:28:56.285Z,81
2023-04-01T07:30:02.652Z,80
2023-04-01T07:31:08.748Z,80
2023-04-01T07:32:14.954Z,80.5
2023-04-01T07:33:21.434Z,80
2023-04-01T07:34:26.507Z,79.5
2023-04-01T07:35:32.778Z,80.5
2023-04-01T07:36:39.221Z,79.5
2023-04-01T07:37:44.593Z,79.5
2023-04-01T07:38:49.909Z,79.5
2023-04-01T07:39:56.064Z,80.5
2023-04-01T07:42:08.640Z,79.5
2023-04-01T07:43:13.919Z,79
2023-04-01T07:44:19.220Z,80
2023-04-01T07:45:25.407Z,79
2023-04-01T07:46:31.800Z,79.5
2023-04-01T07:47:37.975Z,79.5
2023-04-01T07:48:44.240Z,79.5
2023-04-01T07:49:50.536Z,80
2023-04-01T07:50:56.733Z,80
2023-04-01T07:52:03.077Z,79.5
2023-04-01T07:53:09.217Z,80
2023-04-01T07:54:15.675Z,79
2023-04-01T07:55:21.931Z,80
2023-04-01T07:56:28.111Z,80
2023-04-01T07:57:34.307Z,80.5
2023-04-01T07:58:39.786Z,79.5
2023-04-01T07:59:45.858Z,80
2023-04-01T08:00:52.314Z,79.5
2023-04-01T08:01:58.618Z,79
2023-04-01T08:03:04.925Z,80
2023-04-01T08:04:11.190Z,80.5
2023-04-01T08:05:17.326Z,79
2023-04-01T08:06:22.710Z,79
2023-04-01T08:07:28.973Z,80
2023-04-01T08:08:34.132Z,80
2023-04-01T08:09:40.546Z,80
2023-04-01T08:10:46.799Z,79.5
2023-04-01T08:11:52.044Z,79
2023-04-01T08:12:58.375Z,79.5
2023-04-01T08:14:03.704Z,79.5
2023-04-01T08:15:09.749Z,79
2023-04-01T08:16:16.211Z,80
2023-04-01T08:17:22.440Z,80.5
2023-04-01T08:18:28.718Z,80
2023-04-01T08:19:34.970Z,80
2023-04-01T08:20:41.198Z,80.5
2023-04-01T08:21:47.628Z,81
2023-04-01T08:22:53.707Z,80
2023-04-01T08:24:00.030Z,80
2023-04-01T08:25:06.238Z,80
2023-04-01T08:26:12.633Z,80.5
2023-04-01T08:27:18.907Z,79.5
2023-04-01T08:28:24.203Z,80
2023-04-01T08:29:30.457Z,80
2023-04-01T08:30:36.702Z,80
2023-04-01T08:31:42.986Z,79.5
2023-04-01T08:32:49.280Z,81.5
2023-04-01T08:33:55.391Z,81.5
2023-04-01T08:35:00.873Z,80
2023-04-01T08:36:06.216Z,79.5
2023-04-01T08:37:12.371Z,80
2023-04-01T08:38:18.658Z,80
2023-04-01T08:39:24.930Z,80
2023-04-01T08:40:31.200Z,81.5
2023-04-01T08:41:36.522Z,80
2023-04-01T08:42:42.805Z,82
2023-04-01T08:43:48.055Z,80
2023-04-01T08:44:54.398Z,81.5
2023-04-01T08:46:00.616Z,81.5
2023-04-01T08:47:06.935Z,80.5
2023-04-01T08:48:13.134Z,82
2023-04-01T08:49:19.445Z,82.5
2023-04-01T08:50:25.711Z,81.5
2023-04-01T08:51:32.039Z,80.5
2023-04-01T08:52:38.119Z,83
2023-04-01T08:53:44.364Z,82.5
2023-04-01T08:54:50.681Z,81.5
2023-04-01T08:55:57.045Z,82
2023-04-01T08:57:03.347Z,82.5
2023-04-01T08:58:08.659Z,82.5
2023-04-01T08:59:14.868Z,81.5
2023-04-01T09:00:21.158Z,81.5
2023-04-01T09:01:27.453Z,81.5
2023-04-01T09:02:33.701Z,85
2023-04-01T09:03:39.840Z,84.5
2023-04-01T09:04:46.103Z,85.5
2023-04-01T09:05:52.487Z,83.5
2023-04-01T09:06:58.774Z,84.5
2023-04-01T09:08:05.022Z,84.5
2023-04-01T09:09:11.295Z,83
2023-04-01T09:10:17.603Z,84.5
2023-04-01T09:11:22.933Z,87.5
2023-04-01T09:12:28.055Z,86
2023-04-01T09:13:34.485Z,86
2023-04-01T09:14:40.740Z,85
2023-04-01T09:15:45.896Z,87
2023-04-01T09:16:51.298Z,89
2023-04-01T09:17:57.464Z,86
2023-04-01T09:19:03.841Z,86
2023-04-01T09:20:10.187Z,89.5
2023-04-01T09:21:16.417Z,87.5
2023-04-01T09:22:22.727Z,88
2023-04-01T09:23:28.998Z,86.5
2023-04-01T09:24:35.363Z,87.5
2023-04-01T09:25:41.359Z,87.5
2023-04-01T09:26:47.793Z,88
2023-04-01T09:27:53.956Z,89
2023-04-01T09:29:00.183Z,86.5
2023-04-01T09:30:06.446Z,88
2023-04-01T09:31:11.864Z,86.5
2023-04-01T09:32:18.166Z,87
2023-04-01T09:33:24.344Z,86.5
2023-04-01T09:34:30.628Z,87
2023-04-01T09:35:36.904Z,86.5
2023-04-01T09:36:43.226Z,87
2023-04-01T09:37:49.542Z,87
2023-04-01T09:38:54.894Z,86.5
2023-04-01T09:40:00.066Z,85.5
2023-04-01T09:41:05.434Z,84.5
2023-04-01T09:42:10.718Z,87
2023-04-01T09:43:16.961Z,85
2023-04-01T09:44:23.095Z,86
2023-04-01T09:45:29.492Z,86.5
2023-04-01T09:46:35.632Z,85.5
2023-04-01T09:47:42.074Z,86
2023-04-01T09:48:48.353Z,86
2023-04-01T09:49:54.450Z,86.5
2023-04-01T09:51:00.871Z,85.5
2023-04-01T09:52:07.163Z,86
2023-04-01T09:53:13.268Z,86
2023-04-01T09:54:19.692Z,86
2023-04-01T09:55:25.881Z,86
2023-04-01T09:56:31.311Z,86
2023-04-01T09:57:37.439Z,88
2023-04-01T09:58:43.760Z,86.5
2023-04-01T09:59:49.913Z,89
2023-04-01T10:00:56.237Z,86.5
2023-04-01T10:02:02.463Z,85.5
2023-04-01T10:03:08.782Z,86
2023-04-01T10:04:14.194Z,87.5
2023-04-01T10:05:19.415Z,85.5
2023-04-01T10:06:24.630Z,87.5
2023-04-01T10:07:29.909Z,86.5
2023-04-01T10:08:36.181Z,86.5
2023-04-01T10:09:42.585Z,88
2023-04-01T10:10:48.712Z,86.5
2023-04-01T10:11:55.061Z,85.5
2023-04-01T10:13:01.463Z,87
2023-04-01T10:14:07.676Z,86.5
2023-04-01T10:15:13.809Z,85.5
2023-04-01T10:16:20.279Z,87
2023-04-01T10:17:26.492Z,85
2023-04-01T10:18:32.758Z,86.5
2023-04-01T10:19:38.886Z,88
2023-04-01T10:20:45.325Z,87
2023-04-01T10:21:50.598Z,86
2023-04-01T10:22:56.755Z,85
2023-04-01T10:24:03.131Z,86
2023-04-01T10:25:09.405Z,85
2023-04-01T10:26:15.536Z,87.5
2023-04-01T10:27:21.990Z,84.5
2023-04-01T10:28:28.084Z,85
2023-04-01T10:29:34.533Z,85.5
2023-04-01T10:30:40.747Z,85
2023-04-01T10:31:47.129Z,84.5
2023-04-01T10:32:53.342Z,83.5
2023-04-01T10:33:59.441Z,84.5
2023-04-01T10:35:05.820Z,84
2023-04-01T10:36:10.994Z,86
2023-04-01T10:37:17.378Z,83
2023-04-01T10:38:23.713Z,84.5
2023-04-01T10:39:30.033Z,85
2023-04-01T10:40:36.086Z,84
2023-04-01T10:41:42.555Z,83.5
2023-04-01T10:42:48.807Z,84.5
2023-04-01T10:43:54.995Z,83
2023-04-01T10:45:01.233Z,85
2023-04-01T10:46:07.571Z,85
2023-04-01T10:47:13.717Z,85
2023-04-01T10:48:20.159Z,87.5
2023-04-01T10:49:26.461Z,85
2023-04-01T10:50:31.739Z,84.5
2023-04-01T10:51:37.823Z,85
2023-04-01T10:52:44.107Z,86
2023-04-01T10:53:50.361Z,86
2023-04-01T10:54:56.810Z,86.5
2023-04-01T10:56:03.087Z,85
2023-04-01T10:57:09.184Z,83.5
2023-04-01T10:58:15.584Z,86
2023-04-01T10:59:21.748Z,86
2023-04-01T11:00:28.221Z,86
2023-04-01T11:01:34.464Z,87
2023-04-01T11:02:40.562Z,87
2023-04-01T11:03:46.995Z,88.5
2023-04-01T11:04:52.097Z,85
2023-04-01T11:05:58.518Z,86.5
2023-04-01T11:07:04.798Z,88
2023-04-01T11:08:11.054Z,85
2023-04-01T11:09:17.357Z,86
2023-04-01T11:10:23.461Z,87
2023-04-01T11:11:29.892Z,86.5
2023-04-01T11:12:36.146Z,85
2023-04-01T11:13:42.340Z,85.5
2023-04-01T11:14:48.557Z,84
2023-04-01T11:15:54.896Z,88
2023-04-01T11:17:01.098Z,88
2023-04-01T11:18:07.483Z,85.5
2023-04-01T11:19:12.647Z,86.5
2023-04-01T11:20:18.920Z,85.5
2023-04-01T11:21:24.550Z,86.5
2023-04-01T11:22:29.521Z,89
2023-04-01T11:23:34.806Z,90
2023-04-01T11:24:41.083Z,90
2023-04-01T11:25:46.363Z,87.5
2023-04-01T11:26:52.635Z,88
2023-04-01T11:27:58.908Z,90.5
2023-04-01T11:29:05.179Z,88.5
2023-04-01T11:30:11.452Z,91
2023-04-01T11:31:17.785Z,89.5
2023-04-01T11:32:24.005Z,90
2023-04-01T11:33:30.433Z,90
2023-04-01T11:34:36.543Z,90.5
2023-04-01T11:35:42.814Z,92
2023-04-01T11:36:49.230Z,89.5
2023-04-01T11:37:55.349Z,89
2023-04-01T11:39:01.629Z,88
2023-04-01T11:40:07.894Z,90
2023-04-01T11:41:13.189Z,89.5
2023-04-01T11:42:19.478Z,91
2023-04-01T11:43:25.722Z,90.5
2023-04-01T11:44:32.016Z,91
2023-04-01T11:45:38.273Z,91
2023-04-01T11:46:43.568Z,90.5
2023-04-01T11:47:48.863Z,91
2023-04-01T11:48:55.169Z,90
2023-04-01T11:50:01.412Z,93
2023-04-01T11:51:06.704Z,90
2023-04-01T11:52:12.024Z,91.5
2023-04-01T11:53:18.408Z,93
2023-04-01T11:54:24.534Z,91.5
2023-04-01T11:55:30.860Z,91.5
2023-04-01T11:56:37.080Z,93
2023-04-01T11:57:43.390Z,93.5
2023-04-01T11:58:49.623Z,92
2023-04-01T11:59:55.894Z,89.5
2023-04-01T12:01:02.170Z,91.5
2023-04-01T12:02:08.447Z,92
2023-04-01T12:03:14.714Z,90
2023-04-01T12:04:20.986Z,90
2023-04-01T12:05:27.374Z,90.5
2023-04-01T12:06:32.544Z,90
2023-04-01T12:07:38.821Z,90
2023-04-01T12:08:45.082Z,91.5
2023-04-01T12:09:51.387Z,91
2023-04-01T12:10:57.673Z,90.5
2023-04-01T12:12:03.900Z,92
2023-04-01T12:13:10.163Z,89
2023-04-01T12:14:15.492Z,90
2023-04-01T12:15:20.747Z,90.5
2023-04-01T12:16:27.028Z,89.5
2023-04-01T12:17:33.322Z,88
2023-04-01T12:18:39.577Z,89
2023-04-01T12:19:44.885Z,90
2023-04-01T12:20:51.151Z,89.5
2023-04-01T12:21:56.444Z,89
2023-04-01T12:23:02.721Z,89
2023-04-01T12:24:08.992Z,90
2023-04-01T12:25:15.258Z,87.5
2023-04-01T12:26:21.521Z,87.5
2023-04-01T12:27:27.805Z,87
2023-04-01T12:28:34.063Z,87.5
2023-04-01T12:29:40.348Z,85.5
2023-04-01T12:30:46.605Z,86
2023-04-01T12:31:52.877Z,86.5
2023-04-01T12:32:59.146Z,88
2023-04-01T12:34:05.419Z,85.5
2023-04-01T12:35:11.700Z,86
2023-04-01T12:36:16.983Z,86.5
2023-04-01T12:37:23.247Z,84.5
2023-04-01T12:38:29.528Z,86
2023-04-01T12:39:35.808Z,85
2023-04-01T12:40:42.067Z,85.5
2023-04-01T12:41:48.358Z,84.5
2023-04-01T12:42:54.646Z,87
2023-04-01T12:44:00.885Z,87
2023-04-01T12:45:07.171Z,85.5
2023-04-01T12:46:13.431Z,87
2023-04-01T12:47:19.703Z,85
2023-04-01T12:48:25.983Z,86
2023-04-01T12:49:32.260Z,84.5
2023-04-01T12:50:37.538Z,85
2023-04-01T12:51:43.801Z,86.5
2023-04-01T12:52:50.133Z,86
2023-04-01T12:53:55.362Z,86
2023-04-01T12:55:01.653Z,86.5
2023-04-01T12:56:07.911Z,85.5
2023-04-01T12:57:14.185Z,87.5
2023-04-01T12:58:20.460Z,88
2023-04-01T12:59:26.733Z,89
2023-04-01T13:00:33.001Z,89.5
2023-04-01T13:01:39.273Z,88.5
2023-04-01T13:02:45.533Z,87
2023-04-01T13:03:51.825Z,88.5
2023-04-01T13:04:58.086Z,87.5
2023-04-01T13:06:04.365Z,87.5
2023-04-01T13:07:10.692Z,88
2023-04-01T13:08:15.922Z,88.5
2023-04-01T13:09:22.192Z,90.5
2023-04-01T13:10:28.578Z,90.5
2023-04-01T13:11:34.770Z,87
2023-04-01T13:12:41.031Z,88.5
2023-04-01T13:13:47.327Z,90.5
2023-04-01T13:14:53.560Z,86.5
2023-04-01T13:15:59.827Z,87
2023-04-01T13:17:06.095Z,87.5
2023-04-01T13:18:12.377Z,87.5
2023-04-01T13:19:18.638Z,86.5
2023-04-01T13:20:24.953Z,88
2023-04-01T13:21:31.184Z,88
2023-04-01T13:22:36.472Z,86.5
2023-04-01T13:23:42.747Z,86.5
2023-04-01T13:24:49.039Z,86.5
2023-04-01T13:25:55.283Z,89
2023-04-01T13:27:01.565Z,88
2023-04-01T13:28:07.821Z,87.5
2023-04-01T13:29:14.101Z,90.5
2023-04-01T13:30:20.444Z,88
2023-04-01T13:31:26.641Z,87.5
2023-04-01T13:32:32.919Z,90.5
2023-04-01T13:33:39.216Z,88
2023-04-01T13:34:44.471Z,87.5
2023-04-01T13:35:49.775Z,87
2023-04-01T13:36:55.086Z,86.5
2023-04-01T13:38:00.399Z,87
2023-04-01T13:39:06.625Z,87.5
2023-04-01T13:40:12.912Z,88
2023-04-01T13:41:19.160Z,86.5
2023-04-01T13:42:25.461Z,86
2023-04-01T13:43:31.726Z,86.5
2023-04-01T13:44:38.039Z,86.5
2023-04-01T13:45:44.264Z,85.5
2023-04-01T13:46:50.542Z,87
2023-04-01T13:47:56.802Z,85
2023-04-01T13:49:03.086Z,85.5
2023-04-01T13:50:09.393Z,85
2023-04-01T13:51:15.765Z,87.5
2023-04-01T13:52:20.995Z,85
2023-04-01T13:53:27.177Z,87
2023-04-01T13:54:33.622Z,84
2023-04-01T13:55:39.721Z,83
2023-04-01T13:56:45.991Z,84.5
2023-04-01T13:57:52.264Z,85
2023-04-01T13:58:58.561Z,82.5
2023-04-01T14:00:03.863Z,83
2023-04-01T14:02:15.396Z,85
2023-04-01T14:03:21.672Z,80.5
2023-04-01T14:04:26.969Z,81
2023-04-01T14:05:32.264Z,80
2023-04-01T14:06:38.523Z,79.5
2023-04-01T14:07:44.796Z,81
2023-04-01T14:08:51.058Z,79
2023-04-01T14:09:57.365Z,78.5
2023-04-01T14:11:03.626Z,78.5
2023-04-01T14:12:09.931Z,79
2023-04-01T14:13:16.160Z,80.5
2023-04-01T14:14:22.444Z,77.5
2023-04-01T14:15:28.698Z,76.5
2023-04-01T14:16:35.002Z,77.5
2023-04-01T14:17:41.463Z,76.5
2023-04-01T14:18:47.509Z,77.5
2023-04-01T14:19:52.806Z,76.5
2023-04-01T14:20:59.098Z,77.5
2023-04-01T14:22:05.345Z,78.5
2023-04-01T14:23:11.622Z,78
2023-04-01T14:24:17.899Z,77
2023-04-01T14:25:24.163Z,77.5
2023-04-01T14:26:30.436Z,77
2023-04-01T14:27:36.710Z,76.5
2023-04-01T14:28:43.062Z,77.5
2023-04-01T14:29:49.261Z,78
2023-04-01T14:30:55.522Z,79
2023-04-01T14:32:01.818Z,78
2023-04-01T14:33:08.071Z,77
2023-04-01T14:34:13.414Z,76.5
2023-04-01T14:35:19.703Z,77
2023-04-01T14:36:25.896Z,76.5
2023-04-01T14:37:32.323Z,76.5
2023-04-01T14:38:38.443Z,78
2023-04-01T14:39:44.725Z,77
2023-04-01T14:40:51.073Z,76.5
2023-04-01T14:41:57.267Z,75
2023-04-01T14:43:03.559Z,75.5
2023-04-01T14:44:09.823Z,74
2023-04-01T14:45:16.090Z,73.5
2023-04-01T14:46:22.342Z,73.5
2023-04-01T14:47:28.657Z,74.5
2023-04-01T14:48:33.913Z,74
2023-04-01T14:49:40.193Z,73
2023-04-01T14:50:46.460Z,72.5
2023-04-01T14:51:52.727Z,72.5
2023-04-01T14:52:58.996Z,73
2023-04-01T14:54:05.382Z,73.5
2023-04-01T14:55:11.590Z,73
2023-04-01T14:56:17.820Z,72.5
2023-04-01T14:57:24.106Z,72.5
2023-04-01T14:58:30.352Z,72
2023-04-01T14:59:36.630Z,71.5
2023-04-01T15:00:42.905Z,72
2023-04-01T15:01:48.255Z,71.5
2023-04-01T15:02:53.489Z,71
2023-04-01T15:03:58.805Z,71
2023-04-01T15:05:04.078Z,71.5
2023-04-01T15:06:10.462Z,71.5
2023-04-01T15:07:16.636Z,72
2023-04-01T15:08:22.898Z,71
2023-04-01T15:09:29.190Z,71
2023-04-01T15:10:35.438Z,71
2023-04-01T15:11:41.733Z,70
2023-04-01T15:12:47.981Z,73
2023-04-01T15:13:54.307Z,73
2023-04-01T15:15:00.531Z,70.5
2023-04-01T15:16:06.789Z,70.5
2023-04-01T15:17:13.069Z,69